sensor_id;sensor_type;location;lat;lon;timestamp;P1;P2;P0
73631;PMS5003;61924;53.268;-2.458;2023-02-16T00:02:14;32;31;
73631;PMS5003;61924;53.268;-2.458;2023-02-16T00:04:40;30;28;
73631;PMS5003;61924;53.268;-2.458;2023-02-16T00:07:05;28;26;
73631;PMS5003;61924;53.268;-2.458;2023-02-16T00:09:30;29;27;
73631;PMS5003;61924;53.268;-2.458;2023-02-16T00:11:55;27;26;
73631;PMS5003;61924;53.268;-2.458;2023-02-16T00:14:21;28;28;
73631;PMS5003;61924;53.268;-2.458;2023-02-16T00:16:47;28;27;
73631;PMS5003;61924;53.268;-2.458;2023-02-16T00:19:15;30;30;
73631;PMS5003;61924;53.268;-2.458;2023-02-16T00:21:37;32;28;
73631;PMS5003;61924;53.268;-2.458;2023-02-16T00:24:03;32;30;
73631;PMS5003;61924;53.268;-2.458;2023-02-16T00:26:28;28;27;
73631;PMS5003;61924;53.268;-2.458;2023-02-16T00:28:55;31;30;
73631;PMS5003;61924;53.268;-2.458;2023-02-16T00:31:20;24;24;
73631;PMS5003;61924;53.268;-2.458;2023-02-16T00:33:45;25;23;
73631;PMS5003;61924;53.268;-2.458;2023-02-16T00:36:10;31;29;
73631;PMS5003;61924;53.268;-2.458;2023-02-16T00:38:35;25;24;
73631;PMS5003;61924;53.268;-2.458;2023-02-16T00:41:01;26;23;
73631;PMS5003;61924;53.268;-2.458;2023-02-16T00:43:27;29;27;
73631;PMS5003;61924;53.268;-2.458;2023-02-16T00:45:52;31;31;
73631;PMS5003;61924;53.268;-2.458;2023-02-16T00:48:17;27;27;
73631;PMS5003;61924;53.268;-2.458;2023-02-16T00:50:43;27;27;
73631;PMS5003;61924;53.268;-2.458;2023-02-16T00:53:09;27;24;
73631;PMS5003;61924;53.268;-2.458;2023-02-16T00:55:34;25;23;
73631;PMS5003;61924;53.268;-2.458;2023-02-16T00:58:01;31;29;
73631;PMS5003;61924;53.268;-2.458;2023-02-16T01:00:25;27;24;
73631;PMS5003;61924;53.268;-2.458;2023-02-16T01:02:50;22;20;
73631;PMS5003;61924;53.268;-2.458;2023-02-16T01:05:15;27;26;
73631;PMS5003;61924;53.268;-2.458;2023-02-16T01:07:41;23;23;
73631;PMS5003;61924;53.268;-2.458;2023-02-16T01:10:07;26;25;
73631;PMS5003;61924;53.268;-2.458;2023-02-16T01:12:32;24;23;
73631;PMS5003;61924;53.268;-2.458;2023-02-16T01:14:58;23;22;
73631;PMS5003;61924;53.268;-2.458;2023-02-16T01:17:23;22;22;
73631;PMS5003;61924;53.268;-2.458;2023-02-16T01:19:48;25;25;
73631;PMS5003;61924;53.268;-2.458;2023-02-16T01:22:14;23;23;
73631;PMS5003;61924;53.268;-2.458;2023-02-16T01:24:40;30;26;
73631;PMS5003;61924;53.268;-2.458;2023-02-16T01:27:08;20;20;
73631;PMS5003;61924;53.268;-2.458;2023-02-16T01:29:31;24;22;
73631;PMS5003;61924;53.268;-2.458;2023-02-16T01:31:56;22;22;
73631;PMS5003;61924;53.268;-2.458;2023-02-16T01:34:22;24;22;
73631;PMS5003;61924;53.268;-2.458;2023-02-16T01:36:48;22;22;
73631;PMS5003;61924;53.268;-2.458;2023-02-16T01:39:13;22;22;
73631;PMS5003;61924;53.268;-2.458;2023-02-16T01:41:43;21;20;
73631;PMS5003;61924;53.268;-2.458;2023-02-16T01:44:04;26;25;
73631;PMS5003;61924;53.268;-2.458;2023-02-16T01:46:31;23;21;
73631;PMS5003;61924;53.268;-2.458;2023-02-16T01:48:53;20;20;
73631;PMS5003;61924;53.268;-2.458;2023-02-16T01:51:19;19;18;
73631;PMS5003;61924;53.268;-2.458;2023-02-16T01:53:45;21;21;
73631;PMS5003;61924;53.268;-2.458;2023-02-16T01:56:12;22;20;
73631;PMS5003;61924;53.268;-2.458;2023-02-16T01:58:35;21;19;
73631;PMS5003;61924;53.268;-2.458;2023-02-16T02:01:35;18;18;
73631;PMS5003;61924;53.268;-2.458;2023-02-16T02:03:26;17;16;
73631;PMS5003;61924;53.268;-2.458;2023-02-16T02:05:51;22;20;
73631;PMS5003;61924;53.268;-2.458;2023-02-16T02:08:20;16;15;
73631;PMS5003;61924;53.268;-2.458;2023-02-16T02:10:44;18;16;
73631;PMS5003;61924;53.268;-2.458;2023-02-16T02:13:09;17;17;
73631;PMS5003;61924;53.268;-2.458;2023-02-16T02:15:33;18;17;
73631;PMS5003;61924;53.268;-2.458;2023-02-16T02:17:58;16;16;
73631;PMS5003;61924;53.268;-2.458;2023-02-16T02:20:25;14;14;
73631;PMS5003;61924;53.268;-2.458;2023-02-16T02:23:01;16;16;
73631;PMS5003;61924;53.268;-2.458;2023-02-16T02:25:20;14;14;
73631;PMS5003;61924;53.268;-2.458;2023-02-16T02:27:41;15;15;
73631;PMS5003;61924;53.268;-2.458;2023-02-16T02:30:10;18;17;
73631;PMS5003;61924;53.268;-2.458;2023-02-16T02:32:34;16;15;
73631;PMS5003;61924;53.268;-2.458;2023-02-16T02:34:59;13;13;
73631;PMS5003;61924;53.268;-2.458;2023-02-16T02:37:25;16;16;
73631;PMS5003;61924;53.268;-2.458;2023-02-16T02:39:50;15;14;
73631;PMS5003;61924;53.268;-2.458;2023-02-16T02:42:16;14;12;
73631;PMS5003;61924;53.268;-2.458;2023-02-16T02:44:41;15;14;
73631;PMS5003;61924;53.268;-2.458;2023-02-16T02:47:05;16;16;
73631;PMS5003;61924;53.268;-2.458;2023-02-16T02:49:30;14;13;
73631;PMS5003;61924;53.268;-2.458;2023-02-16T02:51:56;16;14;
73631;PMS5003;61924;53.268;-2.458;2023-02-16T02:54:22;12;12;
73631;PMS5003;61924;53.268;-2.458;2023-02-16T02:56:48;13;13;
73631;PMS5003;61924;53.268;-2.458;2023-02-16T02:59:12;10;9;
73631;PMS5003;61924;53.268;-2.458;2023-02-16T03:01:38;10;10;
73631;PMS5003;61924;53.268;-2.458;2023-02-16T03:04:03;11;10;
73631;PMS5003;61924;53.268;-2.458;2023-02-16T03:06:29;12;12;
73631;PMS5003;61924;53.268;-2.458;2023-02-16T03:08:55;12;11;
73631;PMS5003;61924;53.268;-2.458;2023-02-16T03:11:20;13;13;
73631;PMS5003;61924;53.268;-2.458;2023-02-16T03:13:46;11;11;
73631;PMS5003;61924;53.268;-2.458;2023-02-16T03:16:11;10;10;
73631;PMS5003;61924;53.268;-2.458;2023-02-16T03:18:36;9;8;
73631;PMS5003;61924;53.268;-2.458;2023-02-16T03:21:02;10;10;
73631;PMS5003;61924;53.268;-2.458;2023-02-16T03:23:27;11;10;
73631;PMS5003;61924;53.268;-2.458;2023-02-16T03:25:53;10;10;
73631;PMS5003;61924;53.268;-2.458;2023-02-16T03:28:19;11;11;
73631;PMS5003;61924;53.268;-2.458;2023-02-16T03:30:44;10;9;
73631;PMS5003;61924;53.268;-2.458;2023-02-16T03:33:09;10;10;
73631;PMS5003;61924;53.268;-2.458;2023-02-16T03:35:35;8;8;
73631;PMS5003;61924;53.268;-2.458;2023-02-16T03:38:00;7;7;
73631;PMS5003;61924;53.268;-2.458;2023-02-16T03:40:25;11;10;
73631;PMS5003;61924;53.268;-2.458;2023-02-16T03:42:51;8;7;
73631;PMS5003;61924;53.268;-2.458;2023-02-16T03:45:16;8;8;
73631;PMS5003;61924;53.268;-2.458;2023-02-16T03:47:41;8;8;
73631;PMS5003;61924;53.268;-2.458;2023-02-16T03:50:07;9;9;
73631;PMS5003;61924;53.268;-2.458;2023-02-16T03:52:32;8;8;
73631;PMS5003;61924;53.268;-2.458;2023-02-16T03:54:57;8;8;
73631;PMS5003;61924;53.268;-2.458;2023-02-16T03:57:23;13;13;
73631;PMS5003;61924;53.268;-2.458;2023-02-16T03:59:48;14;13;
73631;PMS5003;61924;53.268;-2.458;2023-02-16T04:02:13;12;12;
73631;PMS5003;61924;53.268;-2.458;2023-02-16T04:04:39;11;11;
73631;PMS5003;61924;53.268;-2.458;2023-02-16T04:07:04;14;14;
73631;PMS5003;61924;53.268;-2.458;2023-02-16T04:09:29;13;12;
73631;PMS5003;61924;53.268;-2.458;2023-02-16T04:11:55;11;11;
73631;PMS5003;61924;53.268;-2.458;2023-02-16T04:14:20;14;13;
73631;PMS5003;61924;53.268;-2.458;2023-02-16T04:16:45;12;12;
73631;PMS5003;61924;53.268;-2.458;2023-02-16T04:19:10;14;14;
73631;PMS5003;61924;53.268;-2.458;2023-02-16T04:21:36;11;11;
73631;PMS5003;61924;53.268;-2.458;2023-02-16T04:24:02;17;15;
73631;PMS5003;61924;53.268;-2.458;2023-02-16T04:26:28;14;13;
73631;PMS5003;61924;53.268;-2.458;2023-02-16T04:28:53;12;12;
73631;PMS5003;61924;53.268;-2.458;2023-02-16T04:31:19;11;11;
73631;PMS5003;61924;53.268;-2.458;2023-02-16T04:33:44;12;12;
73631;PMS5003;61924;53.268;-2.458;2023-02-16T04:36:10;11;11;
73631;PMS5003;61924;53.268;-2.458;2023-02-16T04:38:35;11;11;
73631;PMS5003;61924;53.268;-2.458;2023-02-16T04:41:01;16;15;
73631;PMS5003;61924;53.268;-2.458;2023-02-16T04:43:26;23;22;
73631;PMS5003;61924;53.268;-2.458;2023-02-16T04:45:52;51;48;
73631;PMS5003;61924;53.268;-2.458;2023-02-16T04:48:17;48;48;
73631;PMS5003;61924;53.268;-2.458;2023-02-16T04:50:43;51;50;
73631;PMS5003;61924;53.268;-2.458;2023-02-16T04:53:09;59;56;
73631;PMS5003;61924;53.268;-2.458;2023-02-16T04:55:34;51;50;
73631;PMS5003;61924;53.268;-2.458;2023-02-16T04:58:00;45;44;
73631;PMS5003;61924;53.268;-2.458;2023-02-16T05:00:25;45;45;
73631;PMS5003;61924;53.268;-2.458;2023-02-16T05:02:51;44;44;
73631;PMS5003;61924;53.268;-2.458;2023-02-16T05:05:16;41;39;
73631;PMS5003;61924;53.268;-2.458;2023-02-16T05:07:42;43;42;
73631;PMS5003;61924;53.268;-2.458;2023-02-16T05:10:09;42;41;
73631;PMS5003;61924;53.268;-2.458;2023-02-16T05:12:33;37;37;
73631;PMS5003;61924;53.268;-2.458;2023-02-16T05:14:59;33;32;
73631;PMS5003;61924;53.268;-2.458;2023-02-16T05:17:25;38;37;
73631;PMS5003;61924;53.268;-2.458;2023-02-16T05:19:51;35;35;
73631;PMS5003;61924;53.268;-2.458;2023-02-16T05:22:15;35;35;
73631;PMS5003;61924;53.268;-2.458;2023-02-16T05:24:41;32;32;
73631;PMS5003;61924;53.268;-2.458;2023-02-16T05:27:07;28;28;
73631;PMS5003;61924;53.268;-2.458;2023-02-16T05:29:32;32;32;
73631;PMS5003;61924;53.268;-2.458;2023-02-16T05:31:57;28;27;
73631;PMS5003;61924;53.268;-2.458;2023-02-16T05:34:22;29;28;
73631;PMS5003;61924;53.268;-2.458;2023-02-16T05:36:48;26;25;
73631;PMS5003;61924;53.268;-2.458;2023-02-16T05:39:13;24;24;
73631;PMS5003;61924;53.268;-2.458;2023-02-16T05:41:39;26;25;
73631;PMS5003;61924;53.268;-2.458;2023-02-16T05:44:07;22;22;
73631;PMS5003;61924;53.268;-2.458;2023-02-16T05:46:31;26;25;
73631;PMS5003;61924;53.268;-2.458;2023-02-16T05:48:55;22;22;
73631;PMS5003;61924;53.268;-2.458;2023-02-16T05:51:21;20;20;
73631;PMS5003;61924;53.268;-2.458;2023-02-16T05:53:46;22;21;
73631;PMS5003;61924;53.268;-2.458;2023-02-16T05:56:12;20;20;
73631;PMS5003;61924;53.268;-2.458;2023-02-16T05:58:38;20;19;
73631;PMS5003;61924;53.268;-2.458;2023-02-16T06:01:03;18;17;
73631;PMS5003;61924;53.268;-2.458;2023-02-16T06:03:28;19;19;
73631;PMS5003;61924;53.268;-2.458;2023-02-16T06:05:55;19;19;
73631;PMS5003;61924;53.268;-2.458;2023-02-16T06:08:20;17;17;
73631;PMS5003;61924;53.268;-2.458;2023-02-16T06:10:47;16;16;
73631;PMS5003;61924;53.268;-2.458;2023-02-16T06:13:11;17;17;
73631;PMS5003;61924;53.268;-2.458;2023-02-16T06:15:36;12;12;
73631;PMS5003;61924;53.268;-2.458;2023-02-16T06:18:01;16;16;
73631;PMS5003;61924;53.268;-2.458;2023-02-16T06:20:27;15;14;
73631;PMS5003;61924;53.268;-2.458;2023-02-16T06:22:52;14;13;
73631;PMS5003;61924;53.268;-2.458;2023-02-16T06:25:18;14;14;
73631;PMS5003;61924;53.268;-2.458;2023-02-16T06:27:43;12;12;
73631;PMS5003;61924;53.268;-2.458;2023-02-16T06:30:09;10;10;
73631;PMS5003;61924;53.268;-2.458;2023-02-16T06:32:34;13;12;
73631;PMS5003;61924;53.268;-2.458;2023-02-16T06:34:59;11;11;
73631;PMS5003;61924;53.268;-2.458;2023-02-16T06:37:25;13;13;
73631;PMS5003;61924;53.268;-2.458;2023-02-16T06:39:50;12;12;
73631;PMS5003;61924;53.268;-2.458;2023-02-16T06:42:15;15;12;
73631;PMS5003;61924;53.268;-2.458;2023-02-16T06:44:41;10;10;
73631;PMS5003;61924;53.268;-2.458;2023-02-16T06:47:06;11;10;
73631;PMS5003;61924;53.268;-2.458;2023-02-16T06:49:31;10;10;
73631;PMS5003;61924;53.268;-2.458;2023-02-16T06:51:57;8;7;
73631;PMS5003;61924;53.268;-2.458;2023-02-16T06:54:22;11;10;
73631;PMS5003;61924;53.268;-2.458;2023-02-16T06:56:47;8;8;
73631;PMS5003;61924;53.268;-2.458;2023-02-16T06:59:13;8;8;
73631;PMS5003;61924;53.268;-2.458;2023-02-16T07:01:38;8;8;
73631;PMS5003;61924;53.268;-2.458;2023-02-16T07:04:04;8;7;
73631;PMS5003;61924;53.268;-2.458;2023-02-16T07:06:29;8;8;
73631;PMS5003;61924;53.268;-2.458;2023-02-16T07:08:55;9;9;
73631;PMS5003;61924;53.268;-2.458;2023-02-16T07:11:20;8;8;
73631;PMS5003;61924;53.268;-2.458;2023-02-16T07:13:45;8;8;
73631;PMS5003;61924;53.268;-2.458;2023-02-16T07:16:11;8;8;
73631;PMS5003;61924;53.268;-2.458;2023-02-16T07:18:36;7;6;
73631;PMS5003;61924;53.268;-2.458;2023-02-16T07:21:01;6;6;
73631;PMS5003;61924;53.268;-2.458;2023-02-16T07:23:26;8;8;
73631;PMS5003;61924;53.268;-2.458;2023-02-16T07:25:52;6;6;
73631;PMS5003;61924;53.268;-2.458;2023-02-16T07:28:17;9;9;
73631;PMS5003;61924;53.268;-2.458;2023-02-16T07:30:43;9;8;
73631;PMS5003;61924;53.268;-2.458;2023-02-16T07:33:09;8;8;
73631;PMS5003;61924;53.268;-2.458;2023-02-16T07:35:34;7;7;
73631;PMS5003;61924;53.268;-2.458;2023-02-16T07:37:59;7;7;
73631;PMS5003;61924;53.268;-2.458;2023-02-16T07:40:25;5;5;
73631;PMS5003;61924;53.268;-2.458;2023-02-16T07:42:50;5;5;
73631;PMS5003;61924;53.268;-2.458;2023-02-16T07:45:16;9;7;
73631;PMS5003;61924;53.268;-2.458;2023-02-16T07:47:41;5;5;
73631;PMS5003;61924;53.268;-2.458;2023-02-16T07:50:07;6;6;
73631;PMS5003;61924;53.268;-2.458;2023-02-16T07:52:33;6;6;
73631;PMS5003;61924;53.268;-2.458;2023-02-16T07:54:58;6;6;
73631;PMS5003;61924;53.268;-2.458;2023-02-16T07:57:23;5;5;
73631;PMS5003;61924;53.268;-2.458;2023-02-16T07:59:49;6;6;
73631;PMS5003;61924;53.268;-2.458;2023-02-16T08:02:14;5;5;
73631;PMS5003;61924;53.268;-2.458;2023-02-16T08:04:39;5;5;
73631;PMS5003;61924;53.268;-2.458;2023-02-16T08:07:04;5;5;
73631;PMS5003;61924;53.268;-2.458;2023-02-16T08:09:30;5;5;
73631;PMS5003;61924;53.268;-2.458;2023-02-16T08:11:55;6;6;
73631;PMS5003;61924;53.268;-2.458;2023-02-16T08:14:20;5;5;
73631;PMS5003;61924;53.268;-2.458;2023-02-16T08:16:46;6;6;
73631;PMS5003;61924;53.268;-2.458;2023-02-16T08:19:12;4;4;
73631;PMS5003;61924;53.268;-2.458;2023-02-16T08:21:37;3;3;
73631;PMS5003;61924;53.268;-2.458;2023-02-16T08:24:04;5;5;
73631;PMS5003;61924;53.268;-2.458;2023-02-16T08:26:31;5;5;
73631;PMS5003;61924;53.268;-2.458;2023-02-16T08:28:55;7;6;
73631;PMS5003;61924;53.268;-2.458;2023-02-16T08:31:21;6;5;
73631;PMS5003;61924;53.268;-2.458;2023-02-16T08:33:46;4;4;
73631;PMS5003;61924;53.268;-2.458;2023-02-16T08:36:19;5;5;
73631;PMS5003;61924;53.268;-2.458;2023-02-16T08:38:36;5;4;
73631;PMS5003;61924;53.268;-2.458;2023-02-16T08:41:01;5;5;
73631;PMS5003;61924;53.268;-2.458;2023-02-16T08:43:26;5;5;
73631;PMS5003;61924;53.268;-2.458;2023-02-16T08:45:52;4;4;
73631;PMS5003;61924;53.268;-2.458;2023-02-16T08:48:18;4;4;
73631;PMS5003;61924;53.268;-2.458;2023-02-16T08:50:43;5;4;
73631;PMS5003;61924;53.268;-2.458;2023-02-16T08:53:09;3;3;
73631;PMS5003;61924;53.268;-2.458;2023-02-16T08:55:34;5;5;
73631;PMS5003;61924;53.268;-2.458;2023-02-16T08:57:59;3;2;
73631;PMS5003;61924;53.268;-2.458;2023-02-16T09:00:25;5;4;
73631;PMS5003;61924;53.268;-2.458;2023-02-16T09:02:51;4;4;
73631;PMS5003;61924;53.268;-2.458;2023-02-16T09:05:16;5;5;
73631;PMS5003;61924;53.268;-2.458;2023-02-16T09:07:42;4;3;
73631;PMS5003;61924;53.268;-2.458;2023-02-16T09:10:07;5;4;
73631;PMS5003;61924;53.268;-2.458;2023-02-16T09:12:33;5;4;
73631;PMS5003;61924;53.268;-2.458;2023-02-16T09:14:59;5;5;
73631;PMS5003;61924;53.268;-2.458;2023-02-16T09:17:24;5;5;
73631;PMS5003;61924;53.268;-2.458;2023-02-16T09:19:49;6;5;
73631;PMS5003;61924;53.268;-2.458;2023-02-16T09:22:14;3;3;
73631;PMS5003;61924;53.268;-2.458;2023-02-16T09:24:39;6;6;
73631;PMS5003;61924;53.268;-2.458;2023-02-16T09:27:05;5;5;
73631;PMS5003;61924;53.268;-2.458;2023-02-16T09:29:30;4;4;
73631;PMS5003;61924;53.268;-2.458;2023-02-16T09:31:55;6;5;
73631;PMS5003;61924;53.268;-2.458;2023-02-16T09:34:21;4;3;
73631;PMS5003;61924;53.268;-2.458;2023-02-16T09:36:46;3;3;
73631;PMS5003;61924;53.268;-2.458;2023-02-16T09:39:12;4;4;
73631;PMS5003;61924;53.268;-2.458;2023-02-16T09:41:42;3;3;
73631;PMS5003;61924;53.268;-2.458;2023-02-16T09:44:05;5;4;
73631;PMS5003;61924;53.268;-2.458;2023-02-16T09:46:28;5;5;
73631;PMS5003;61924;53.268;-2.458;2023-02-16T09:48:54;4;4;
73631;PMS5003;61924;53.268;-2.458;2023-02-16T09:51:21;5;4;
73631;PMS5003;61924;53.268;-2.458;2023-02-16T09:53:45;2;2;
73631;PMS5003;61924;53.268;-2.458;2023-02-16T09:56:13;3;3;
73631;PMS5003;61924;53.268;-2.458;2023-02-16T09:58:38;3;3;
73631;PMS5003;61924;53.268;-2.458;2023-02-16T10:01:02;3;3;
73631;PMS5003;61924;53.268;-2.458;2023-02-16T10:03:32;3;3;
73631;PMS5003;61924;53.268;-2.458;2023-02-16T10:05:54;5;4;
73631;PMS5003;61924;53.268;-2.458;2023-02-16T10:08:20;3;3;
73631;PMS5003;61924;53.268;-2.458;2023-02-16T10:10:45;5;4;
73631;PMS5003;61924;53.268;-2.458;2023-02-16T10:13:10;2;2;
73631;PMS5003;61924;53.268;-2.458;2023-02-16T10:15:34;4;3;
73631;PMS5003;61924;53.268;-2.458;2023-02-16T10:18:00;3;3;
73631;PMS5003;61924;53.268;-2.458;2023-02-16T10:20:27;5;4;
73631;PMS5003;61924;53.268;-2.458;2023-02-16T10:22:51;3;3;
73631;PMS5003;61924;53.268;-2.458;2023-02-16T10:25:17;7;7;
73631;PMS5003;61924;53.268;-2.458;2023-02-16T10:27:41;2;2;
73631;PMS5003;61924;53.268;-2.458;2023-02-16T10:30:10;4;4;
73631;PMS5003;61924;53.268;-2.458;2023-02-16T10:32:32;3;3;
73631;PMS5003;61924;53.268;-2.458;2023-02-16T10:34:59;4;4;
73631;PMS5003;61924;53.268;-2.458;2023-02-16T10:37:24;2;2;
73631;PMS5003;61924;53.268;-2.458;2023-02-16T10:39:49;5;4;
73631;PMS5003;61924;53.268;-2.458;2023-02-16T10:42:15;5;3;
73631;PMS5003;61924;53.268;-2.458;2023-02-16T10:44:38;4;4;
73631;PMS5003;61924;53.268;-2.458;2023-02-16T10:47:04;3;3;
73631;PMS5003;61924;53.268;-2.458;2023-02-16T10:49:29;4;4;
73631;PMS5003;61924;53.268;-2.458;2023-02-16T10:51:54;2;2;
73631;PMS5003;61924;53.268;-2.458;2023-02-16T10:54:21;3;3;
73631;PMS5003;61924;53.268;-2.458;2023-02-16T10:56:48;3;3;
73631;PMS5003;61924;53.268;-2.458;2023-02-16T10:59:13;1;1;
73631;PMS5003;61924;53.268;-2.458;2023-02-16T11:01:37;2;2;
73631;PMS5003;61924;53.268;-2.458;2023-02-16T11:04:03;3;3;
73631;PMS5003;61924;53.268;-2.458;2023-02-16T11:06:28;4;4;
73631;PMS5003;61924;53.268;-2.458;2023-02-16T11:08:54;3;3;
73631;PMS5003;61924;53.268;-2.458;2023-02-16T11:11:19;3;3;
73631;PMS5003;61924;53.268;-2.458;2023-02-16T11:13:46;3;3;
73631;PMS5003;61924;53.268;-2.458;2023-02-16T11:16:10;5;5;
73631;PMS5003;61924;53.268;-2.458;2023-02-16T11:18:36;3;3;
73631;PMS5003;61924;53.268;-2.458;2023-02-16T11:21:01;3;3;
73631;PMS5003;61924;53.268;-2.458;2023-02-16T11:23:27;2;2;
73631;PMS5003;61924;53.268;-2.458;2023-02-16T11:25:54;3;3;
73631;PMS5003;61924;53.268;-2.458;2023-02-16T11:28:21;2;2;
73631;PMS5003;61924;53.268;-2.458;2023-02-16T11:30:42;3;2;
73631;PMS5003;61924;53.268;-2.458;2023-02-16T11:33:17;2;2;
73631;PMS5003;61924;53.268;-2.458;2023-02-16T11:35:41;2;2;
73631;PMS5003;61924;53.268;-2.458;2023-02-16T11:37:58;2;2;
73631;PMS5003;61924;53.268;-2.458;2023-02-16T11:40:23;3;3;
73631;PMS5003;61924;53.268;-2.458;2023-02-16T11:42:50;2;2;
73631;PMS5003;61924;53.268;-2.458;2023-02-16T11:45:20;3;2;
73631;PMS5003;61924;53.268;-2.458;2023-02-16T11:47:40;2;2;
73631;PMS5003;61924;53.268;-2.458;2023-02-16T11:50:08;3;3;
73631;PMS5003;61924;53.268;-2.458;2023-02-16T11:52:30;3;3;
73631;PMS5003;61924;53.268;-2.458;2023-02-16T11:54:57;3;2;
73631;PMS5003;61924;53.268;-2.458;2023-02-16T11:57:22;4;3;
73631;PMS5003;61924;53.268;-2.458;2023-02-16T11:59:47;2;2;
73631;PMS5003;61924;53.268;-2.458;2023-02-16T12:02:20;2;2;
73631;PMS5003;61924;53.268;-2.458;2023-02-16T12:04:41;2;2;
73631;PMS5003;61924;53.268;-2.458;2023-02-16T12:07:06;2;2;
73631;PMS5003;61924;53.268;-2.458;2023-02-16T12:09:29;1;1;
73631;PMS5003;61924;53.268;-2.458;2023-02-16T12:11:56;2;2;
73631;PMS5003;61924;53.268;-2.458;2023-02-16T12:14:21;0;0;
73631;PMS5003;61924;53.268;-2.458;2023-02-16T12:16:46;3;2;
73631;PMS5003;61924;53.268;-2.458;2023-02-16T12:19:15;1;1;
73631;PMS5003;61924;53.268;-2.458;2023-02-16T12:21:36;2;2;
73631;PMS5003;61924;53.268;-2.458;2023-02-16T12:24:01;1;1;
73631;PMS5003;61924;53.268;-2.458;2023-02-16T12:26:29;1;1;
73631;PMS5003;61924;53.268;-2.458;2023-02-16T12:28:54;2;2;
73631;PMS5003;61924;53.268;-2.458;2023-02-16T12:31:18;2;2;
73631;PMS5003;61924;53.268;-2.458;2023-02-16T12:33:44;1;1;
73631;PMS5003;61924;53.268;-2.458;2023-02-16T12:36:14;2;2;
73631;PMS5003;61924;53.268;-2.458;2023-02-16T12:38:35;2;2;
73631;PMS5003;61924;53.268;-2.458;2023-02-16T12:40:59;3;2;
73631;PMS5003;61924;53.268;-2.458;2023-02-16T12:43:27;2;2;
73631;PMS5003;61924;53.268;-2.458;2023-02-16T12:45:49;1;1;
73631;PMS5003;61924;53.268;-2.458;2023-02-16T12:48:18;2;2;
73631;PMS5003;61924;53.268;-2.458;2023-02-16T12:50:41;1;1;
73631;PMS5003;61924;53.268;-2.458;2023-02-16T12:53:06;2;2;
73631;PMS5003;61924;53.268;-2.458;2023-02-16T12:55:31;1;1;
73631;PMS5003;61924;53.268;-2.458;2023-02-16T12:57:58;2;2;
73631;PMS5003;61924;53.268;-2.458;2023-02-16T13:00:24;0;0;
73631;PMS5003;61924;53.268;-2.458;2023-02-16T13:02:48;3;3;
73631;PMS5003;61924;53.268;-2.458;2023-02-16T13:05:15;2;2;
73631;PMS5003;61924;53.268;-2.458;2023-02-16T13:07:39;2;2;
73631;PMS5003;61924;53.268;-2.458;2023-02-16T13:10:11;1;1;
73631;PMS5003;61924;53.268;-2.458;2023-02-16T13:12:30;1;1;
73631;PMS5003;61924;53.268;-2.458;2023-02-16T13:14:57;1;1;
73631;PMS5003;61924;53.268;-2.458;2023-02-16T13:17:23;2;2;
73631;PMS5003;61924;53.268;-2.458;2023-02-16T13:19:46;3;3;
73631;PMS5003;61924;53.268;-2.458;2023-02-16T13:22:16;2;1;
73631;PMS5003;61924;53.268;-2.458;2023-02-16T13:24:41;3;2;
73631;PMS5003;61924;53.268;-2.458;2023-02-16T13:27:06;2;2;
73631;PMS5003;61924;53.268;-2.458;2023-02-16T13:31:44;1;1;
73631;PMS5003;61924;53.268;-2.458;2023-02-16T13:34:12;0;0;
73631;PMS5003;61924;53.268;-2.458;2023-02-16T13:36:38;1;1;
73631;PMS5003;61924;53.268;-2.458;2023-02-16T13:39:06;3;1;
73631;PMS5003;61924;53.268;-2.458;2023-02-16T13:41:28;1;1;
73631;PMS5003;61924;53.268;-2.458;2023-02-16T13:43:48;1;1;
73631;PMS5003;61924;53.268;-2.458;2023-02-16T13:46:14;1;0;
73631;PMS5003;61924;53.268;-2.458;2023-02-16T13:48:43;2;2;
73631;PMS5003;61924;53.268;-2.458;2023-02-16T13:51:06;0;0;
73631;PMS5003;61924;53.268;-2.458;2023-02-16T13:53:33;2;2;
73631;PMS5003;61924;53.268;-2.458;2023-02-16T13:56:11;2;2;
73631;PMS5003;61924;53.268;-2.458;2023-02-16T13:58:35;1;1;
73631;PMS5003;61924;53.268;-2.458;2023-02-16T14:00:46;1;1;
73631;PMS5003;61924;53.268;-2.458;2023-02-16T14:03:12;0;0;
73631;PMS5003;61924;53.268;-2.458;2023-02-16T14:05:38;2;2;
73631;PMS5003;61924;53.268;-2.458;2023-02-16T14:08:12;0;0;
73631;PMS5003;61924;53.268;-2.458;2023-02-16T14:10:43;1;1;
73631;PMS5003;61924;53.268;-2.458;2023-02-16T14:12:54;1;1;
73631;PMS5003;61924;53.268;-2.458;2023-02-16T14:15:19;2;1;
73631;PMS5003;61924;53.268;-2.458;2023-02-16T14:17:44;1;1;
73631;PMS5003;61924;53.268;-2.458;2023-02-16T14:20:24;2;1;
73631;PMS5003;61924;53.268;-2.458;2023-02-16T14:22:38;1;1;
73631;PMS5003;61924;53.268;-2.458;2023-02-16T14:25:02;1;1;
73631;PMS5003;61924;53.268;-2.458;2023-02-16T14:27:43;1;1;
73631;PMS5003;61924;53.268;-2.458;2023-02-16T14:29:52;0;0;
73631;PMS5003;61924;53.268;-2.458;2023-02-16T14:32:20;0;0;
73631;PMS5003;61924;53.268;-2.458;2023-02-16T14:34:44;2;2;
73631;PMS5003;61924;53.268;-2.458;2023-02-16T14:37:09;2;2;
73631;PMS5003;61924;53.268;-2.458;2023-02-16T14:39:34;2;2;
73631;PMS5003;61924;53.268;-2.458;2023-02-16T14:42:05;1;1;
73631;PMS5003;61924;53.268;-2.458;2023-02-16T14:44:29;1;0;
73631;PMS5003;61924;53.268;-2.458;2023-02-16T14:46:51;0;0;
73631;PMS5003;61924;53.268;-2.458;2023-02-16T14:49:23;1;1;
73631;PMS5003;61924;53.268;-2.458;2023-02-16T14:54:03;1;1;
73631;PMS5003;61924;53.268;-2.458;2023-02-16T14:56:22;1;1;
73631;PMS5003;61924;53.268;-2.458;2023-02-16T14:58:45;1;1;
73631;PMS5003;61924;53.268;-2.458;2023-02-16T15:01:10;2;1;
73631;PMS5003;61924;53.268;-2.458;2023-02-16T15:03:37;1;1;
73631;PMS5003;61924;53.268;-2.458;2023-02-16T15:06:01;1;1;
73631;PMS5003;61924;53.268;-2.458;2023-02-16T15:08:25;1;1;
73631;PMS5003;61924;53.268;-2.458;2023-02-16T15:10:51;1;1;
73631;PMS5003;61924;53.268;-2.458;2023-02-16T15:13:17;1;1;
73631;PMS5003;61924;53.268;-2.458;2023-02-16T15:15:43;1;1;
73631;PMS5003;61924;53.268;-2.458;2023-02-16T15:18:10;1;1;
73631;PMS5003;61924;53.268;-2.458;2023-02-16T15:20:33;1;1;
73631;PMS5003;61924;53.268;-2.458;2023-02-16T15:22:58;1;1;
73631;PMS5003;61924;53.268;-2.458;2023-02-16T15:25:24;1;1;
73631;PMS5003;61924;53.268;-2.458;2023-02-16T15:27:57;1;1;
73631;PMS5003;61924;53.268;-2.458;2023-02-16T15:30:18;2;1;
73631;PMS5003;61924;53.268;-2.458;2023-02-16T15:32:40;0;0;
73631;PMS5003;61924;53.268;-2.458;2023-02-16T15:35:09;1;1;
73631;PMS5003;61924;53.268;-2.458;2023-02-16T15:37:31;2;1;
73631;PMS5003;61924;53.268;-2.458;2023-02-16T15:40:09;1;1;
73631;PMS5003;61924;53.268;-2.458;2023-02-16T15:42:23;1;1;
73631;PMS5003;61924;53.268;-2.458;2023-02-16T15:44:48;1;1;
73631;PMS5003;61924;53.268;-2.458;2023-02-16T15:47:13;1;1;
73631;PMS5003;61924;53.268;-2.458;2023-02-16T15:49:38;0;0;
73631;PMS5003;61924;53.268;-2.458;2023-02-16T15:52:04;3;3;
73631;PMS5003;61924;53.268;-2.458;2023-02-16T15:54:29;0;0;
73631;PMS5003;61924;53.268;-2.458;2023-02-16T15:56:57;1;1;
73631;PMS5003;61924;53.268;-2.458;2023-02-16T15:59:23;2;2;
73631;PMS5003;61924;53.268;-2.458;2023-02-16T16:01:45;1;1;
73631;PMS5003;61924;53.268;-2.458;2023-02-16T16:04:15;1;1;
73631;PMS5003;61924;53.268;-2.458;2023-02-16T16:06:37;3;1;
73631;PMS5003;61924;53.268;-2.458;2023-02-16T16:09:01;1;1;
73631;PMS5003;61924;53.268;-2.458;2023-02-16T16:11:27;1;1;
73631;PMS5003;61924;53.268;-2.458;2023-02-16T16:13:52;1;1;